sensor_id;sensor_type;location;lat;lon;timestamp;P1;durP1;ratioP1;P2;durP2;ratioP2
52620;SDS011;38515;53.160;6.990;2023-11-22T00:01:02;465.38;;;444.70;;
52620;SDS011;38515;53.160;6.990;2023-11-22T00:03:31;461.15;;;440.48;;
52620;SDS011;38515;53.160;6.990;2023-11-22T00:05:57;454.08;;;434.00;;
52620;SDS011;38515;53.160;6.990;2023-11-22T00:08:23;461.13;;;440.75;;
52620;SDS011;38515;53.160;6.990;2023-11-22T00:10:49;462.95;;;442.08;;
52620;SDS011;38515;53.160;6.990;2023-11-22T00:13:15;473.70;;;452.55;;
52620;SDS011;38515;53.160;6.990;2023-11-22T00:15:41;490.90;;;468.45;;
52620;SDS011;38515;53.160;6.990;2023-11-22T00:18:07;499.65;;;476.33;;
52620;SDS011;38515;53.160;6.990;2023-11-22T00:20:33;505.17;;;481.08;;
52620;SDS011;38515;53.160;6.990;2023-11-22T00:22:59;501.48;;;477.67;;
52620;SDS011;38515;53.160;6.990;2023-11-22T00:25:25;495.05;;;471.45;;
52620;SDS011;38515;53.160;6.990;2023-11-22T00:27:51;487.73;;;464.60;;
52620;SDS011;38515;53.160;6.990;2023-11-22T00:30:17;453.38;;;432.35;;
52620;SDS011;38515;53.160;6.990;2023-11-22T00:32:43;421.88;;;402.92;;
52620;SDS011;38515;53.160;6.990;2023-11-22T00:35:09;408.48;;;390.40;;
52620;SDS011;38515;53.160;6.990;2023-11-22T00:37:34;396.13;;;378.75;;
52620;SDS011;38515;53.160;6.990;2023-11-22T00:40:01;431.75;;;413.38;;
52620;SDS011;38515;53.160;6.990;2023-11-22T00:42:39;403.73;;;386.65;;
52620;SDS011;38515;53.160;6.990;2023-11-22T00:45:07;435.45;;;415.92;;
52620;SDS011;38515;53.160;6.990;2023-11-22T00:47:35;462.80;;;442.33;;
52620;SDS011;38515;53.160;6.990;2023-11-22T00:50:02;501.42;;;478.67;;
52620;SDS011;38515;53.160;6.990;2023-11-22T00:52:29;481.23;;;460.15;;
52620;SDS011;38515;53.160;6.990;2023-11-22T00:54:56;463.83;;;443.20;;
52620;SDS011;38515;53.160;6.990;2023-11-22T00:57:22;464.35;;;444.33;;
52620;SDS011;38515;53.160;6.990;2023-11-22T00:59:48;443.50;;;424.20;;
52620;SDS011;38515;53.160;6.990;2023-11-22T01:02:15;448.58;;;429.35;;
52620;SDS011;38515;53.160;6.990;2023-11-22T01:04:41;453.92;;;433.70;;
52620;SDS011;38515;53.160;6.990;2023-11-22T01:07:07;129.90;;;123.38;;
52620;SDS011;38515;53.160;6.990;2023-11-22T01:09:33;530.55;;;506.50;;
52620;SDS011;38515;53.160;6.990;2023-11-22T01:11:59;116.65;;;110.78;;
52620;SDS011;38515;53.160;6.990;2023-11-22T01:14:25;433.58;;;416.23;;
52620;SDS011;38515;53.160;6.990;2023-11-22T01:16:52;390.38;;;375.23;;
52620;SDS011;38515;53.160;6.990;2023-11-22T01:19:19;383.48;;;368.63;;
52620;SDS011;38515;53.160;6.990;2023-11-22T01:21:46;387.95;;;372.58;;
52620;SDS011;38515;53.160;6.990;2023-11-22T01:24:12;389.92;;;374.45;;
52620;SDS011;38515;53.160;6.990;2023-11-22T01:26:38;415.45;;;398.70;;
52620;SDS011;38515;53.160;6.990;2023-11-22T01:29:04;380.27;;;365.42;;
52620;SDS011;38515;53.160;6.990;2023-11-22T01:31:30;113.38;;;106.25;;
52620;SDS011;38515;53.160;6.990;2023-11-22T01:33:58;362.55;;;348.52;;
52620;SDS011;38515;53.160;6.990;2023-11-22T01:36:24;403.20;;;387.20;;
52620;SDS011;38515;53.160;6.990;2023-11-22T01:38:51;403.90;;;387.83;;
52620;SDS011;38515;53.160;6.990;2023-11-22T01:41:17;377.60;;;362.45;;
52620;SDS011;38515;53.160;6.990;2023-11-22T01:43:43;362.83;;;348.35;;
52620;SDS011;38515;53.160;6.990;2023-11-22T01:46:09;366.90;;;351.80;;
52620;SDS011;38515;53.160;6.990;2023-11-22T01:48:44;359.90;;;345.27;;
52620;SDS011;38515;53.160;6.990;2023-11-22T01:51:10;359.90;;;345.70;;
52620;SDS011;38515;53.160;6.990;2023-11-22T01:53:36;376.67;;;361.73;;
52620;SDS011;38515;53.160;6.990;2023-11-22T01:56:02;382.83;;;367.20;;
52620;SDS011;38515;53.160;6.990;2023-11-22T01:58:28;373.38;;;358.38;;
52620;SDS011;38515;53.160;6.990;2023-11-22T02:00:54;373.48;;;358.50;;
52620;SDS011;38515;53.160;6.990;2023-11-22T02:03:19;387.05;;;371.15;;
52620;SDS011;38515;53.160;6.990;2023-11-22T02:05:46;381.50;;;366.08;;
52620;SDS011;38515;53.160;6.990;2023-11-22T02:08:12;383.00;;;367.10;;
52620;SDS011;38515;53.160;6.990;2023-11-22T02:10:38;367.17;;;352.35;;
52620;SDS011;38515;53.160;6.990;2023-11-22T02:13:05;365.30;;;350.48;;
52620;SDS011;38515;53.160;6.990;2023-11-22T02:15:33;336.02;;;322.73;;
52620;SDS011;38515;53.160;6.990;2023-11-22T02:17:59;366.88;;;352.05;;
52620;SDS011;38515;53.160;6.990;2023-11-22T02:20:26;382.88;;;367.27;;
52620;SDS011;38515;53.160;6.990;2023-11-22T02:22:52;382.95;;;367.73;;
52620;SDS011;38515;53.160;6.990;2023-11-22T02:25:18;460.00;;;441.17;;
52620;SDS011;38515;53.160;6.990;2023-11-22T02:27:44;526.40;;;503.45;;
52620;SDS011;38515;53.160;6.990;2023-11-22T02:30:13;565.85;;;541.45;;
52620;SDS011;38515;53.160;6.990;2023-11-22T02:32:38;555.30;;;530.70;;
52620;SDS011;38515;53.160;6.990;2023-11-22T02:35:04;584.42;;;558.58;;
52620;SDS011;38515;53.160;6.990;2023-11-22T02:37:34;582.63;;;556.50;;
52620;SDS011;38515;53.160;6.990;2023-11-22T02:40:10;570.95;;;545.70;;
52620;SDS011;38515;53.160;6.990;2023-11-22T02:42:47;584.88;;;558.70;;
52620;SDS011;38515;53.160;6.990;2023-11-22T02:45:18;547.20;;;522.90;;
52620;SDS011;38515;53.160;6.990;2023-11-22T02:47:54;608.78;;;580.35;;
52620;SDS011;38515;53.160;6.990;2023-11-22T02:50:20;650.30;;;619.17;;
52620;SDS011;38515;53.160;6.990;2023-11-22T02:52:46;647.10;;;616.13;;
52620;SDS011;38515;53.160;6.990;2023-11-22T02:55:11;645.10;;;614.83;;
52620;SDS011;38515;53.160;6.990;2023-11-22T02:57:37;603.97;;;575.03;;
52620;SDS011;38515;53.160;6.990;2023-11-22T03:00:07;588.90;;;560.42;;
52620;SDS011;38515;53.160;6.990;2023-11-22T03:02:38;549.58;;;524.00;;
52620;SDS011;38515;53.160;6.990;2023-11-22T03:05:07;528.22;;;504.33;;
52620;SDS011;38515;53.160;6.990;2023-11-22T03:07:34;508.85;;;485.70;;
52620;SDS011;38515;53.160;6.990;2023-11-22T03:10:01;507.85;;;485.00;;
52620;SDS011;38515;53.160;6.990;2023-11-22T03:12:27;517.42;;;494.05;;
52620;SDS011;38515;53.160;6.990;2023-11-22T03:14:53;525.88;;;502.48;;
52620;SDS011;38515;53.160;6.990;2023-11-22T03:17:24;566.10;;;539.88;;
52620;SDS011;38515;53.160;6.990;2023-11-22T03:19:50;610.58;;;580.92;;
52620;SDS011;38515;53.160;6.990;2023-11-22T03:22:16;601.50;;;572.67;;
52620;SDS011;38515;53.160;6.990;2023-11-22T03:24:42;618.30;;;589.10;;
52620;SDS011;38515;53.160;6.990;2023-11-22T03:27:08;595.25;;;567.20;;
52620;SDS011;38515;53.160;6.990;2023-11-22T03:29:35;647.03;;;615.13;;
52620;SDS011;38515;53.160;6.990;2023-11-22T03:32:03;651.10;;;619.17;;
52620;SDS011;38515;53.160;6.990;2023-11-22T03:34:29;662.22;;;630.40;;
52620;SDS011;38515;53.160;6.990;2023-11-22T03:36:57;605.92;;;577.60;;
52620;SDS011;38515;53.160;6.990;2023-11-22T03:39:23;543.22;;;518.45;;
52620;SDS011;38515;53.160;6.990;2023-11-22T03:41:50;560.60;;;534.72;;
52620;SDS011;38515;53.160;6.990;2023-11-22T03:44:16;546.42;;;522.55;;
52620;SDS011;38515;53.160;6.990;2023-11-22T03:46:42;505.45;;;483.65;;
52620;SDS011;38515;53.160;6.990;2023-11-22T03:49:08;520.83;;;498.15;;
52620;SDS011;38515;53.160;6.990;2023-11-22T03:51:35;519.58;;;496.80;;
52620;SDS011;38515;53.160;6.990;2023-11-22T03:54:02;527.17;;;504.20;;
52620;SDS011;38515;53.160;6.990;2023-11-22T03:56:28;542.90;;;518.80;;
52620;SDS011;38515;53.160;6.990;2023-11-22T03:58:54;529.63;;;506.58;;
52620;SDS011;38515;53.160;6.990;2023-11-22T04:01:21;499.80;;;477.63;;
52620;SDS011;38515;53.160;6.990;2023-11-22T04:03:47;489.63;;;468.80;;
52620;SDS011;38515;53.160;6.990;2023-11-22T04:06:16;509.35;;;487.52;;
52620;SDS011;38515;53.160;6.990;2023-11-22T04:08:44;488.25;;;467.05;;
52620;SDS011;38515;53.160;6.990;2023-11-22T04:11:14;477.80;;;457.40;;
52620;SDS011;38515;53.160;6.990;2023-11-22T04:13:41;484.33;;;464.27;;
52620;SDS011;38515;53.160;6.990;2023-11-22T04:16:07;507.67;;;485.98;;
52620;SDS011;38515;53.160;6.990;2023-11-22T04:18:34;506.80;;;485.35;;
52620;SDS011;38515;53.160;6.990;2023-11-22T04:21:03;507.13;;;485.55;;
52620;SDS011;38515;53.160;6.990;2023-11-22T04:23:33;486.77;;;466.17;;
52620;SDS011;38515;53.160;6.990;2023-11-22T04:25:59;469.48;;;450.15;;
52620;SDS011;38515;53.160;6.990;2023-11-22T04:28:29;474.60;;;455.13;;
52620;SDS011;38515;53.160;6.990;2023-11-22T04:30:56;481.60;;;462.10;;
52620;SDS011;38515;53.160;6.990;2023-11-22T04:33:22;606.08;;;578.50;;
52620;SDS011;38515;53.160;6.990;2023-11-22T04:35:49;647.33;;;616.28;;
52620;SDS011;38515;53.160;6.990;2023-11-22T04:38:18;638.28;;;607.85;;
52620;SDS011;38515;53.160;6.990;2023-11-22T04:40:44;660.55;;;628.40;;
52620;SDS011;38515;53.160;6.990;2023-11-22T04:43:10;534.70;;;511.35;;
52620;SDS011;38515;53.160;6.990;2023-11-22T04:45:36;467.80;;;448.25;;
52620;SDS011;38515;53.160;6.990;2023-11-22T04:48:03;442.15;;;424.05;;
52620;SDS011;38515;53.160;6.990;2023-11-22T04:50:32;428.80;;;411.45;;
52620;SDS011;38515;53.160;6.990;2023-11-22T04:52:58;433.98;;;416.60;;
52620;SDS011;38515;53.160;6.990;2023-11-22T04:55:26;471.65;;;452.27;;
52620;SDS011;38515;53.160;6.990;2023-11-22T04:57:53;488.73;;;468.42;;
52620;SDS011;38515;53.160;6.990;2023-11-22T05:00:20;501.60;;;480.33;;
52620;SDS011;38515;53.160;6.990;2023-11-22T05:02:48;497.20;;;476.35;;
52620;SDS011;38515;53.160;6.990;2023-11-22T05:05:14;498.38;;;477.52;;
52620;SDS011;38515;53.160;6.990;2023-11-22T05:07:40;466.73;;;446.95;;
52620;SDS011;38515;53.160;6.990;2023-11-22T05:10:06;470.13;;;450.92;;
52620;SDS011;38515;53.160;6.990;2023-11-22T05:12:34;460.05;;;441.33;;
52620;SDS011;38515;53.160;6.990;2023-11-22T05:15:01;450.63;;;432.20;;
52620;SDS011;38515;53.160;6.990;2023-11-22T05:17:28;472.13;;;452.25;;
52620;SDS011;38515;53.160;6.990;2023-11-22T05:19:53;462.50;;;443.33;;
52620;SDS011;38515;53.160;6.990;2023-11-22T05:22:19;453.67;;;435.02;;
52620;SDS011;38515;53.160;6.990;2023-11-22T05:24:46;455.13;;;436.58;;
52620;SDS011;38515;53.160;6.990;2023-11-22T05:27:12;119.38;;;111.68;;
52620;SDS011;38515;53.160;6.990;2023-11-22T05:29:38;469.13;;;449.58;;
52620;SDS011;38515;53.160;6.990;2023-11-22T05:32:05;423.77;;;405.75;;
52620;SDS011;38515;53.160;6.990;2023-11-22T05:34:31;466.95;;;447.65;;
52620;SDS011;38515;53.160;6.990;2023-11-22T05:36:58;462.67;;;443.08;;
52620;SDS011;38515;53.160;6.990;2023-11-22T05:39:24;475.48;;;455.20;;
52620;SDS011;38515;53.160;6.990;2023-11-22T05:41:50;472.83;;;453.55;;
52620;SDS011;38515;53.160;6.990;2023-11-22T05:44:17;467.38;;;447.92;;
52620;SDS011;38515;53.160;6.990;2023-11-22T05:46:43;454.63;;;436.20;;
52620;SDS011;38515;53.160;6.990;2023-11-22T05:49:08;468.52;;;449.17;;
52620;SDS011;38515;53.160;6.990;2023-11-22T05:51:35;491.65;;;471.08;;
52620;SDS011;38515;53.160;6.990;2023-11-22T05:54:04;479.98;;;459.35;;
52620;SDS011;38515;53.160;6.990;2023-11-22T05:56:32;489.08;;;467.75;;
52620;SDS011;38515;53.160;6.990;2023-11-22T05:58:57;487.00;;;466.08;;
52620;SDS011;38515;53.160;6.990;2023-11-22T06:01:25;466.27;;;446.83;;
52620;SDS011;38515;53.160;6.990;2023-11-22T06:03:51;476.98;;;456.92;;
52620;SDS011;38515;53.160;6.990;2023-11-22T06:06:18;500.77;;;478.10;;
52620;SDS011;38515;53.160;6.990;2023-11-22T06:08:46;488.38;;;467.75;;
52620;SDS011;38515;53.160;6.990;2023-11-22T06:11:13;484.45;;;463.63;;
52620;SDS011;38515;53.160;6.990;2023-11-22T06:13:40;472.63;;;452.65;;
52620;SDS011;38515;53.160;6.990;2023-11-22T06:16:08;482.52;;;461.80;;
52620;SDS011;38515;53.160;6.990;2023-11-22T06:18:34;483.83;;;463.77;;
52620;SDS011;38515;53.160;6.990;2023-11-22T06:21:05;491.63;;;470.52;;
52620;SDS011;38515;53.160;6.990;2023-11-22T06:23:32;492.92;;;471.70;;
52620;SDS011;38515;53.160;6.990;2023-11-22T06:25:58;475.63;;;455.42;;
52620;SDS011;38515;53.160;6.990;2023-11-22T06:28:24;502.40;;;481.45;;
52620;SDS011;38515;53.160;6.990;2023-11-22T06:30:50;505.60;;;484.08;;
52620;SDS011;38515;53.160;6.990;2023-11-22T06:33:16;508.48;;;487.15;;
52620;SDS011;38515;53.160;6.990;2023-11-22T06:35:41;483.95;;;462.80;;
52620;SDS011;38515;53.160;6.990;2023-11-22T06:38:08;504.92;;;483.50;;
52620;SDS011;38515;53.160;6.990;2023-11-22T06:40:34;515.50;;;493.25;;
52620;SDS011;38515;53.160;6.990;2023-11-22T06:43:00;499.80;;;478.75;;
52620;SDS011;38515;53.160;6.990;2023-11-22T06:45:29;492.92;;;471.55;;
52620;SDS011;38515;53.160;6.990;2023-11-22T06:47:56;489.88;;;469.58;;
52620;SDS011;38515;53.160;6.990;2023-11-22T06:50:23;477.55;;;457.58;;
52620;SDS011;38515;53.160;6.990;2023-11-22T06:52:49;481.52;;;461.08;;
52620;SDS011;38515;53.160;6.990;2023-11-22T06:55:17;502.52;;;481.13;;
52620;SDS011;38515;53.160;6.990;2023-11-22T06:57:44;495.38;;;473.75;;
52620;SDS011;38515;53.160;6.990;2023-11-22T07:00:10;514.05;;;491.23;;
52620;SDS011;38515;53.160;6.990;2023-11-22T07:02:37;532.25;;;508.33;;
52620;SDS011;38515;53.160;6.990;2023-11-22T07:05:04;545.85;;;521.60;;
52620;SDS011;38515;53.160;6.990;2023-11-22T07:07:39;546.63;;;522.65;;
52620;SDS011;38515;53.160;6.990;2023-11-22T07:10:05;531.45;;;507.15;;
52620;SDS011;38515;53.160;6.990;2023-11-22T07:12:35;581.28;;;555.13;;
52620;SDS011;38515;53.160;6.990;2023-11-22T07:15:01;645.78;;;616.40;;
52620;SDS011;38515;53.160;6.990;2023-11-22T07:17:28;616.30;;;588.35;;
52620;SDS011;38515;53.160;6.990;2023-11-22T07:19:54;608.53;;;581.22;;
52620;SDS011;38515;53.160;6.990;2023-11-22T07:22:20;606.17;;;579.28;;
52620;SDS011;38515;53.160;6.990;2023-11-22T07:24:48;589.92;;;564.17;;
52620;SDS011;38515;53.160;6.990;2023-11-22T07:27:19;598.38;;;571.88;;
52620;SDS011;38515;53.160;6.990;2023-11-22T07:29:46;570.20;;;545.35;;
52620;SDS011;38515;53.160;6.990;2023-11-22T07:32:12;552.78;;;528.45;;
52620;SDS011;38515;53.160;6.990;2023-11-22T07:34:38;524.40;;;501.52;;
52620;SDS011;38515;53.160;6.990;2023-11-22T07:37:06;326.38;;;313.10;;
52620;SDS011;38515;53.160;6.990;2023-11-22T07:39:32;343.38;;;329.25;;
52620;SDS011;38515;53.160;6.990;2023-11-22T07:42:00;357.40;;;342.50;;
52620;SDS011;38515;53.160;6.990;2023-11-22T07:44:33;362.88;;;348.02;;
52620;SDS011;38515;53.160;6.990;2023-11-22T07:47:01;365.65;;;351.00;;
52620;SDS011;38515;53.160;6.990;2023-11-22T07:49:27;401.92;;;385.35;;
52620;SDS011;38515;53.160;6.990;2023-11-22T07:51:54;401.27;;;384.77;;
52620;SDS011;38515;53.160;6.990;2023-11-22T07:54:21;446.92;;;428.20;;
52620;SDS011;38515;53.160;6.990;2023-11-22T07:56:48;418.38;;;401.25;;
52620;SDS011;38515;53.160;6.990;2023-11-22T07:59:14;434.88;;;416.48;;
52620;SDS011;38515;53.160;6.990;2023-11-22T08:01:43;425.10;;;407.52;;
52620;SDS011;38515;53.160;6.990;2023-11-22T08:04:10;423.88;;;406.58;;
52620;SDS011;38515;53.160;6.990;2023-11-22T08:06:37;442.10;;;423.27;;
52620;SDS011;38515;53.160;6.990;2023-11-22T08:09:03;446.35;;;427.60;;
52620;SDS011;38515;53.160;6.990;2023-11-22T08:11:30;448.45;;;429.23;;
52620;SDS011;38515;53.160;6.990;2023-11-22T08:13:57;437.05;;;418.05;;
52620;SDS011;38515;53.160;6.990;2023-11-22T08:16:28;470.05;;;447.98;;
52620;SDS011;38515;53.160;6.990;2023-11-22T08:18:54;465.65;;;444.45;;
52620;SDS011;38515;53.160;6.990;2023-11-22T08:21:20;465.88;;;444.67;;
52620;SDS011;38515;53.160;6.990;2023-11-22T08:23:46;470.90;;;449.25;;
52620;SDS011;38515;53.160;6.990;2023-11-22T08:26:12;464.52;;;442.85;;
52620;SDS011;38515;53.160;6.990;2023-11-22T08:28:41;465.05;;;443.48;;
52620;SDS011;38515;53.160;6.990;2023-11-22T08:31:07;458.10;;;437.50;;
52620;SDS011;38515;53.160;6.990;2023-11-22T08:33:36;461.05;;;439.98;;
52620;SDS011;38515;53.160;6.990;2023-11-22T08:36:05;461.10;;;440.08;;
52620;SDS011;38515;53.160;6.990;2023-11-22T08:38:33;454.65;;;433.63;;
52620;SDS011;38515;53.160;6.990;2023-11-22T08:41:05;464.52;;;443.30;;
52620;SDS011;38515;53.160;6.990;2023-11-22T08:43:32;484.52;;;460.90;;
52620;SDS011;38515;53.160;6.990;2023-11-22T08:45:58;482.65;;;459.25;;
52620;SDS011;38515;53.160;6.990;2023-11-22T08:48:25;482.85;;;460.00;;
52620;SDS011;38515;53.160;6.990;2023-11-22T08:50:51;481.50;;;458.83;;
52620;SDS011;38515;53.160;6.990;2023-11-22T08:53:19;498.10;;;474.45;;
52620;SDS011;38515;53.160;6.990;2023-11-22T08:55:45;57.88;;;53.92;;
52620;SDS011;38515;53.160;6.990;2023-11-22T08:58:12;604.22;;;572.30;;
52620;SDS011;38515;53.160;6.990;2023-11-22T09:00:39;603.00;;;570.67;;
52620;SDS011;38515;53.160;6.990;2023-11-22T09:03:09;578.08;;;548.88;;
52620;SDS011;38515;53.160;6.990;2023-11-22T09:05:41;554.85;;;528.15;;
52620;SDS011;38515;53.160;6.990;2023-11-22T09:08:08;508.48;;;484.58;;
52620;SDS011;38515;53.160;6.990;2023-11-22T09:10:38;520.55;;;496.15;;
52620;SDS011;38515;53.160;6.990;2023-11-22T09:13:05;518.22;;;494.27;;
52620;SDS011;38515;53.160;6.990;2023-11-22T09:15:31;565.28;;;537.38;;
52620;SDS011;38515;53.160;6.990;2023-11-22T09:17:59;576.00;;;547.13;;
52620;SDS011;38515;53.160;6.990;2023-11-22T09:20:25;584.03;;;554.63;;
52620;SDS011;38515;53.160;6.990;2023-11-22T09:22:51;509.88;;;486.42;;
52620;SDS011;38515;53.160;6.990;2023-11-22T09:25:19;502.23;;;478.60;;
52620;SDS011;38515;53.160;6.990;2023-11-22T09:27:47;509.90;;;486.45;;
52620;SDS011;38515;53.160;6.990;2023-11-22T09:30:20;508.17;;;485.45;;
52620;SDS011;38515;53.160;6.990;2023-11-22T09:33:08;501.73;;;479.17;;
52620;SDS011;38515;53.160;6.990;2023-11-22T09:35:35;484.35;;;462.45;;
52620;SDS011;38515;53.160;6.990;2023-11-22T09:38:05;486.50;;;465.13;;
52620;SDS011;38515;53.160;6.990;2023-11-22T09:40:46;475.33;;;453.90;;
52620;SDS011;38515;53.160;6.990;2023-11-22T09:43:14;448.02;;;428.80;;
52620;SDS011;38515;53.160;6.990;2023-11-22T09:45:45;478.67;;;457.33;;
52620;SDS011;38515;53.160;6.990;2023-11-22T09:48:15;440.58;;;421.77;;
52620;SDS011;38515;53.160;6.990;2023-11-22T09:50:46;416.48;;;398.30;;
52620;SDS011;38515;53.160;6.990;2023-11-22T09:56:06;477.98;;;456.45;;
52620;SDS011;38515;53.160;6.990;2023-11-22T09:58:34;438.85;;;419.60;;
52620;SDS011;38515;53.160;6.990;2023-11-22T10:01:02;400.70;;;383.40;;
52620;SDS011;38515;53.160;6.990;2023-11-22T10:03:32;387.35;;;370.90;;
52620;SDS011;38515;53.160;6.990;2023-11-22T10:06:07;285.45;;;273.67;;
52620;SDS011;38515;53.160;6.990;2023-11-22T10:08:33;281.23;;;269.55;;
52620;SDS011;38515;53.160;6.990;2023-11-22T10:11:00;270.92;;;259.80;;
52620;SDS011;38515;53.160;6.990;2023-11-22T10:13:26;354.85;;;340.02;;
52620;SDS011;38515;53.160;6.990;2023-11-22T10:15:53;468.75;;;432.65;;
52620;SDS011;38515;53.160;6.990;2023-11-22T10:18:19;537.13;;;512.25;;
52620;SDS011;38515;53.160;6.990;2023-11-22T10:20:49;407.60;;;389.42;;
52620;SDS011;38515;53.160;6.990;2023-11-22T10:23:19;362.17;;;346.75;;
52620;SDS011;38515;53.160;6.990;2023-11-22T10:25:50;372.42;;;356.20;;
52620;SDS011;38515;53.160;6.990;2023-11-22T10:28:22;394.17;;;376.75;;
52620;SDS011;38515;53.160;6.990;2023-11-22T10:30:50;366.52;;;351.27;;
52620;SDS011;38515;53.160;6.990;2023-11-22T10:33:17;311.63;;;298.98;;
52620;SDS011;38515;53.160;6.990;2023-11-22T10:35:48;207.07;;;198.68;;
52620;SDS011;38515;53.160;6.990;2023-11-22T10:38:16;411.58;;;393.63;;
52620;SDS011;38515;53.160;6.990;2023-11-22T10:40:43;345.27;;;331.65;;
52620;SDS011;38515;53.160;6.990;2023-11-22T10:43:11;373.10;;;357.27;;
52620;SDS011;38515;53.160;6.990;2023-11-22T10:45:38;334.20;;;319.50;;
52620;SDS011;38515;53.160;6.990;2023-11-22T10:50:42;265.80;;;255.23;;
52620;SDS011;38515;53.160;6.990;2023-11-22T10:53:43;381.10;;;365.50;;
52620;SDS011;38515;53.160;6.990;2023-11-22T10:56:14;334.00;;;320.83;;
52620;SDS011;38515;53.160;6.990;2023-11-22T10:58:49;310.25;;;297.40;;
52620;SDS011;38515;53.160;6.990;2023-11-22T11:01:21;250.75;;;240.13;;
52620;SDS011;38515;53.160;6.990;2023-11-22T11:04:15;295.55;;;283.60;;
52620;SDS011;38515;53.160;6.990;2023-11-22T11:06:44;179.43;;;172.13;;
52620;SDS011;38515;53.160;6.990;2023-11-22T11:09:16;326.33;;;313.15;;
52620;SDS011;38515;53.160;6.990;2023-11-22T11:11:46;384.85;;;369.27;;
52620;SDS011;38515;53.160;6.990;2023-11-22T11:14:12;336.03;;;322.17;;
52620;SDS011;38515;53.160;6.990;2023-11-22T11:16:40;213.10;;;203.93;;
52620;SDS011;38515;53.160;6.990;2023-11-22T11:19:12;162.82;;;156.20;;
52620;SDS011;38515;53.160;6.990;2023-11-22T11:21:39;261.67;;;250.93;;
52620;SDS011;38515;53.160;6.990;2023-11-22T11:24:06;228.10;;;219.32;;
52620;SDS011;38515;53.160;6.990;2023-11-22T11:26:32;373.75;;;357.95;;
52620;SDS011;38515;53.160;6.990;2023-11-22T11:28:59;134.82;;;129.32;;
52620;SDS011;38515;53.160;6.990;2023-11-22T11:31:28;166.38;;;159.85;;
52620;SDS011;38515;53.160;6.990;2023-11-22T11:34:02;135.43;;;130.07;;
52620;SDS011;38515;53.160;6.990;2023-11-22T11:36:32;165.85;;;159.30;;
52620;SDS011;38515;53.160;6.990;2023-11-22T11:38:59;32.50;;;30.90;;
52620;SDS011;38515;53.160;6.990;2023-11-22T11:41:29;254.45;;;244.77;;
52620;SDS011;38515;53.160;6.990;2023-11-22T11:43:58;214.95;;;206.55;;
52620;SDS011;38515;53.160;6.990;2023-11-22T11:46:32;216.57;;;208.27;;
52620;SDS011;38515;53.160;6.990;2023-11-22T11:48:58;287.73;;;276.13;;
52620;SDS011;38515;53.160;6.990;2023-11-22T11:51:27;256.17;;;244.75;;
52620;SDS011;38515;53.160;6.990;2023-11-22T11:53:55;224.68;;;214.60;;
52620;SDS011;38515;53.160;6.990;2023-11-22T11:56:21;199.20;;;191.15;;
52620;SDS011;38515;53.160;6.990;2023-11-22T11:58:49;34.42;;;32.65;;
52620;SDS011;38515;53.160;6.990;2023-11-22T12:01:16;308.63;;;296.30;;
52620;SDS011;38515;53.160;6.990;2023-11-22T12:03:45;23.75;;;22.55;;
52620;SDS011;38515;53.160;6.990;2023-11-22T12:06:17;346.20;;;232.32;;
52620;SDS011;38515;53.160;6.990;2023-11-22T12:08:46;22.58;;;21.17;;
52620;SDS011;38515;53.160;6.990;2023-11-22T12:11:13;1999.90;;;999.90;;
52620;SDS011;38515;53.160;6.990;2023-11-22T12:13:41;1224.68;;;632.22;;
52620;SDS011;38515;53.160;6.990;2023-11-22T12:16:13;357.10;;;341.58;;
52620;SDS011;38515;53.160;6.990;2023-11-22T12:18:41;296.83;;;284.42;;
52620;SDS011;38515;53.160;6.990;2023-11-22T12:21:11;21.33;;;19.98;;
52620;SDS011;38515;53.160;6.990;2023-11-22T12:23:40;270.33;;;260.02;;
52620;SDS011;38515;53.160;6.990;2023-11-22T12:26:14;224.80;;;216.10;;
52620;SDS011;38515;53.160;6.990;2023-11-22T12:28:41;267.20;;;256.80;;
52620;SDS011;38515;53.160;6.990;2023-11-22T12:31:10;236.52;;;227.27;;
52620;SDS011;38515;53.160;6.990;2023-11-22T12:33:38;229.88;;;221.27;;
52620;SDS011;38515;53.160;6.990;2023-11-22T12:36:06;255.80;;;245.95;;
52620;SDS011;38515;53.160;6.990;2023-11-22T12:38:34;28.98;;;27.27;;
52620;SDS011;38515;53.160;6.990;2023-11-22T12:41:02;39.45;;;37.42;;
52620;SDS011;38515;53.160;6.990;2023-11-22T12:43:29;265.35;;;254.13;;
52620;SDS011;38515;53.160;6.990;2023-11-22T12:46:02;327.42;;;314.70;;
52620;SDS011;38515;53.160;6.990;2023-11-22T12:48:32;321.80;;;309.30;;
52620;SDS011;38515;53.160;6.990;2023-11-22T12:50:59;260.23;;;250.15;;
52620;SDS011;38515;53.160;6.990;2023-11-22T12:53:26;276.83;;;266.55;;
52620;SDS011;38515;53.160;6.990;2023-11-22T12:55:56;68.72;;;65.47;;
52620;SDS011;38515;53.160;6.990;2023-11-22T12:58:23;257.38;;;247.63;;
52620;SDS011;38515;53.160;6.990;2023-11-22T13:00:54;284.70;;;273.95;;
52620;SDS011;38515;53.160;6.990;2023-11-22T13:03:26;292.02;;;280.77;;
52620;SDS011;38515;53.160;6.990;2023-11-22T13:05:52;41.50;;;39.45;;
52620;SDS011;38515;53.160;6.990;2023-11-22T13:08:18;245.38;;;235.80;;
52620;SDS011;38515;53.160;6.990;2023-11-22T13:10:47;232.57;;;223.65;;
52620;SDS011;38515;53.160;6.990;2023-11-22T13:13:21;226.70;;;217.95;;
52620;SDS011;38515;53.160;6.990;2023-11-22T13:15:47;56.53;;;53.72;;
52620;SDS011;38515;53.160;6.990;2023-11-22T13:18:14;51.45;;;49.05;;
52620;SDS011;38515;53.160;6.990;2023-11-22T13:20:44;298.40;;;286.90;;
52620;SDS011;38515;53.160;6.990;2023-11-22T13:23:10;352.17;;;337.80;;
52620;SDS011;38515;53.160;6.990;2023-11-22T13:25:40;56.53;;;53.75;;
52620;SDS011;38515;53.160;6.990;2023-11-22T13:28:09;285.13;;;274.27;;
52620;SDS011;38515;53.160;6.990;2023-11-22T13:30:35;303.30;;;291.73;;
52620;SDS011;38515;53.160;6.990;2023-11-22T13:33:04;260.63;;;250.60;;
52620;SDS011;38515;53.160;6.990;2023-11-22T13:38:35;50.10;;;47.55;;
52620;SDS011;38515;53.160;6.990;2023-11-22T13:41:02;252.80;;;242.63;;
52620;SDS011;38515;53.160;6.990;2023-11-22T13:43:28;318.20;;;305.70;;
52620;SDS011;38515;53.160;6.990;2023-11-22T13:45:54;304.75;;;293.00;;
52620;SDS011;38515;53.160;6.990;2023-11-22T13:48:20;302.55;;;290.58;;
52620;SDS011;38515;53.160;6.990;2023-11-22T13:50:48;332.80;;;319.20;;
52620;SDS011;38515;53.160;6.990;2023-11-22T13:53:14;290.50;;;279.52;;
52620;SDS011;38515;53.160;6.990;2023-11-22T13:55:42;257.25;;;247.43;;
52620;SDS011;38515;53.160;6.990;2023-11-22T13:58:08;253.10;;;243.57;;
52620;SDS011;38515;53.160;6.990;2023-11-22T14:00:34;287.45;;;276.35;;
52620;SDS011;38515;53.160;6.990;2023-11-22T14:03:04;281.65;;;270.83;;
52620;SDS011;38515;53.160;6.990;2023-11-22T14:05:33;62.60;;;59.88;;
52620;SDS011;38515;53.160;6.990;2023-11-22T14:08:02;381.73;;;365.77;;
52620;SDS011;38515;53.160;6.990;2023-11-22T14:10:29;331.73;;;318.35;;